sensor_id;sensor_type;location;lat;lon;timestamp;pressure;altitude;pressure_sealevel;temperature;humidity
4745;BME280;2386;42.138;24.746;2023-04-01T00:01:04;98768.66;;;13.59;77.46
4745;BME280;2386;42.138;24.746;2023-04-01T00:03:30;98759.41;;;13.50;79.07
4745;BME280;2386;42.138;24.746;2023-04-01T00:05:57;98745.50;;;13.52;78.61
4745;BME280;2386;42.138;24.746;2023-04-01T00:08:23;98752.03;;;13.56;78.84
4745;BME280;2386;42.138;24.746;2023-04-01T00:10:50;98754.22;;;13.54;78.40
4745;BME280;2386;42.138;24.746;2023-04-01T00:13:16;98759.13;;;13.57;78.34
4745;BME280;2386;42.138;24.746;2023-04-01T00:15:42;98762.13;;;13.55;78.07
4745;BME280;2386;42.138;24.746;2023-04-01T00:18:07;98757.22;;;13.52;77.65
4745;BME280;2386;42.138;24.746;2023-04-01T00:20:33;98762.66;;;13.42;79.62
4745;BME280;2386;42.138;24.746;2023-04-01T00:22:59;98763.75;;;13.36;79.51
4745;BME280;2386;42.138;24.746;2023-04-01T00:25:25;98762.13;;;13.35;79.58
4745;BME280;2386;42.138;24.746;2023-04-01T00:27:50;98765.91;;;13.19;80.68
4745;BME280;2386;42.138;24.746;2023-04-01T00:30:16;98764.28;;;13.28;80.34
4745;BME280;2386;42.138;24.746;2023-04-01T00:32:42;98782.00;;;13.30;80.37
4745;BME280;2386;42.138;24.746;2023-04-01T00:35:07;98775.19;;;13.23;79.48
4745;BME280;2386;42.138;24.746;2023-04-01T00:37:35;98778.63;;;13.08;78.53
4745;BME280;2386;42.138;24.746;2023-04-01T00:40:03;98769.63;;;13.02;78.75
4745;BME280;2386;42.138;24.746;2023-04-01T00:42:29;98781.84;;;12.90;79.58
4745;BME280;2386;42.138;24.746;2023-04-01T00:44:54;98767.38;;;12.79;80.01
4745;BME280;2386;42.138;24.746;2023-04-01T00:47:20;98772.56;;;12.86;79.62
4745;BME280;2386;42.138;24.746;2023-04-01T00:49:49;98766.63;;;12.94;78.71
4745;BME280;2386;42.138;24.746;2023-04-01T00:52:19;98770.13;;;12.84;80.45
4745;BME280;2386;42.138;24.746;2023-04-01T00:54:47;98764.13;;;12.82;80.23
4745;BME280;2386;42.138;24.746;2023-04-01T00:57:22;98759.97;;;12.69;81.83
4745;BME280;2386;42.138;24.746;2023-04-01T00:59:50;98756.44;;;12.69;81.58
4745;BME280;2386;42.138;24.746;2023-04-01T01:02:18;98757.81;;;12.71;81.65
4745;BME280;2386;42.138;24.746;2023-04-01T01:04:44;98754.22;;;12.56;82.45
4745;BME280;2386;42.138;24.746;2023-04-01T01:12:45;98756.72;;;12.67;80.98
4745;BME280;2386;42.138;24.746;2023-04-01T01:15:24;98762.97;;;12.68;81.94
4745;BME280;2386;42.138;24.746;2023-04-01T01:18:18;98756.19;;;12.70;81.96
4745;BME280;2386;42.138;24.746;2023-04-01T01:29:06;98763.09;;;12.98;81.06
4745;BME280;2386;42.138;24.746;2023-04-01T01:31:53;98760.34;;;12.93;81.12
4745;BME280;2386;42.138;24.746;2023-04-01T01:34:34;98756.81;;;12.98;81.09
4745;BME280;2386;42.138;24.746;2023-04-01T01:37:05;98763.06;;;12.93;81.77
4745;BME280;2386;42.138;24.746;2023-04-01T01:39:34;98739.59;;;12.77;82.67
4745;BME280;2386;42.138;24.746;2023-04-01T01:42:04;98746.16;;;12.81;82.11
4745;BME280;2386;42.138;24.746;2023-04-01T01:44:31;98738.00;;;12.86;82.27
4745;BME280;2386;42.138;24.746;2023-04-01T01:46:58;98744.81;;;12.83;82.34
4745;BME280;2386;42.138;24.746;2023-04-01T01:49:24;98731.25;;;12.99;81.06
4745;BME280;2386;42.138;24.746;2023-04-01T01:51:50;98726.59;;;12.89;81.14
4745;BME280;2386;42.138;24.746;2023-04-01T01:54:17;98734.50;;;13.01;80.96
4745;BME280;2386;42.138;24.746;2023-04-01T01:56:45;98719.78;;;12.87;81.37
4745;BME280;2386;42.138;24.746;2023-04-01T01:59:14;98709.13;;;12.75;81.29
4745;BME280;2386;42.138;24.746;2023-04-01T02:01:48;98711.19;;;12.42;82.25
4745;BME280;2386;42.138;24.746;2023-04-01T02:04:16;98711.13;;;12.32;82.92
4745;BME280;2386;42.138;24.746;2023-04-01T02:06:47;98706.53;;;12.33;82.49
4745;BME280;2386;42.138;24.746;2023-04-01T02:09:17;98701.22;;;12.06;83.45
4745;BME280;2386;42.138;24.746;2023-04-01T02:14:15;98697.56;;;11.90;86.02
4745;BME280;2386;42.138;24.746;2023-04-01T02:17:01;98702.47;;;11.93;86.50
4745;BME280;2386;42.138;24.746;2023-04-01T02:19:38;98715.25;;;11.88;86.71
4745;BME280;2386;42.138;24.746;2023-04-01T02:22:07;98721.28;;;12.00;85.93
4745;BME280;2386;42.138;24.746;2023-04-01T02:24:35;98727.09;;;11.76;86.89
4745;BME280;2386;42.138;24.746;2023-04-01T02:27:01;98727.84;;;12.04;84.70
4745;BME280;2386;42.138;24.746;2023-04-01T02:29:26;98721.25;;;11.95;85.73
4745;BME280;2386;42.138;24.746;2023-04-01T02:31:53;98717.44;;;11.96;84.70
4745;BME280;2386;42.138;24.746;2023-04-01T02:34:21;98707.91;;;11.93;85.99
4745;BME280;2386;42.138;24.746;2023-04-01T02:36:49;98689.69;;;11.89;85.47
4745;BME280;2386;42.138;24.746;2023-04-01T02:39:15;98703.94;;;12.11;84.66
4745;BME280;2386;42.138;24.746;2023-04-01T02:41:44;98695.78;;;12.06;84.73
4745;BME280;2386;42.138;24.746;2023-04-01T02:44:12;98683.56;;;12.08;84.63
4745;BME280;2386;42.138;24.746;2023-04-01T02:46:38;98693.63;;;12.13;84.10
4745;BME280;2386;42.138;24.746;2023-04-01T02:49:05;98708.41;;;12.27;83.39
4745;BME280;2386;42.138;24.746;2023-04-01T02:51:30;98703.47;;;12.24;83.35
4745;BME280;2386;42.138;24.746;2023-04-01T02:53:56;98703.53;;;12.34;82.62
4745;BME280;2386;42.138;24.746;2023-04-01T02:56:21;98697.53;;;12.27;83.73
4745;BME280;2386;42.138;24.746;2023-04-01T02:58:47;98702.44;;;12.30;83.98
4745;BME280;2386;42.138;24.746;2023-04-01T03:01:13;98692.59;;;12.19;84.62
4745;BME280;2386;42.138;24.746;2023-04-01T03:03:38;98696.34;;;12.13;85.69
4745;BME280;2386;42.138;24.746;2023-04-01T03:06:06;98680.31;;;12.11;85.51
4745;BME280;2386;42.138;24.746;2023-04-01T03:08:32;98681.31;;;11.95;86.56
4745;BME280;2386;42.138;24.746;2023-04-01T03:10:57;98686.44;;;11.87;87.21
4745;BME280;2386;42.138;24.746;2023-04-01T03:13:22;98696.28;;;12.03;84.42
4745;BME280;2386;42.138;24.746;2023-04-01T03:15:48;98704.19;;;12.04;84.39
4745;BME280;2386;42.138;24.746;2023-04-01T03:18:13;98702.19;;;11.90;84.73
4745;BME280;2386;42.138;24.746;2023-04-01T03:20:39;98699.59;;;11.68;86.86
4745;BME280;2386;42.138;24.746;2023-04-01T03:23:04;98701.97;;;11.59;88.17
4745;BME280;2386;42.138;24.746;2023-04-01T03:25:29;98683.72;;;11.55;87.74
4745;BME280;2386;42.138;24.746;2023-04-01T03:27:55;98690.13;;;11.38;88.83
4745;BME280;2386;42.138;24.746;2023-04-01T03:30:21;98679.06;;;11.18;89.04
4745;BME280;2386;42.138;24.746;2023-04-01T03:32:46;98675.03;;;11.20;89.87
4745;BME280;2386;42.138;24.746;2023-04-01T03:35:12;98677.38;;;11.07;91.01
4745;BME280;2386;42.138;24.746;2023-04-01T03:37:37;98679.06;;;11.18;91.30
4745;BME280;2386;42.138;24.746;2023-04-01T03:40:03;98664.63;;;11.07;91.79
4745;BME280;2386;42.138;24.746;2023-04-01T03:42:30;98655.41;;;11.08;92.35
4745;BME280;2386;42.138;24.746;2023-04-01T03:44:56;98653.22;;;11.05;91.96
4745;BME280;2386;42.138;24.746;2023-04-01T03:47:21;98657.00;;;11.04;91.89
4745;BME280;2386;42.138;24.746;2023-04-01T03:49:47;98668.94;;;11.03;91.74
4745;BME280;2386;42.138;24.746;2023-04-01T03:52:12;98671.53;;;10.93;92.86
4745;BME280;2386;42.138;24.746;2023-04-01T03:54:38;98666.88;;;10.89;92.87
4745;BME280;2386;42.138;24.746;2023-04-01T03:57:04;98662.31;;;10.94;92.23
4745;BME280;2386;42.138;24.746;2023-04-01T03:59:30;98661.72;;;10.87;92.45
4745;BME280;2386;42.138;24.746;2023-04-01T04:01:55;98657.41;;;10.91;93.24
4745;BME280;2386;42.138;24.746;2023-04-01T04:04:22;98638.69;;;10.90;93.35
4745;BME280;2386;42.138;24.746;2023-04-01T04:06:47;98660.13;;;10.91;93.11
4745;BME280;2386;42.138;24.746;2023-04-01T04:09:13;98651.16;;;10.91;92.98
4745;BME280;2386;42.138;24.746;2023-04-01T04:11:38;98661.81;;;10.97;92.61
4745;BME280;2386;42.138;24.746;2023-04-01T04:14:04;98653.09;;;10.95;93.01
4745;BME280;2386;42.138;24.746;2023-04-01T04:16:30;98657.81;;;11.05;92.52
4745;BME280;2386;42.138;24.746;2023-04-01T04:18:55;98645.63;;;11.07;92.07
4745;BME280;2386;42.138;24.746;2023-04-01T04:21:21;98654.91;;;11.11;92.65
4745;BME280;2386;42.138;24.746;2023-04-01T04:23:46;98651.13;;;11.17;92.25
4745;BME280;2386;42.138;24.746;2023-04-01T04:26:13;98657.16;;;11.25;91.65
4745;BME280;2386;42.138;24.746;2023-04-01T04:28:39;98662.56;;;11.25;92.86
4745;BME280;2386;42.138;24.746;2023-04-01T04:31:06;98656.88;;;11.26;93.10
4745;BME280;2386;42.138;24.746;2023-04-01T04:33:32;98653.66;;;11.29;92.92
4745;BME280;2386;42.138;24.746;2023-04-01T04:35:59;98654.00;;;11.38;93.57
4745;BME280;2386;42.138;24.746;2023-04-01T04:38:25;98642.63;;;11.41;93.23
4745;BME280;2386;42.138;24.746;2023-04-01T04:40:50;98662.25;;;11.53;92.85
4745;BME280;2386;42.138;24.746;2023-04-01T04:43:17;98655.75;;;11.54;92.70
4745;BME280;2386;42.138;24.746;2023-04-01T04:45:42;98660.44;;;11.64;91.88
4745;BME280;2386;42.138;24.746;2023-04-01T04:48:09;98665.13;;;11.73;91.85
4745;BME280;2386;42.138;24.746;2023-04-01T04:50:36;98663.84;;;11.81;90.89
4745;BME280;2386;42.138;24.746;2023-04-01T04:53:02;98667.41;;;11.87;91.45
4745;BME280;2386;42.138;24.746;2023-04-01T04:55:28;98669.03;;;11.82;91.57
4745;BME280;2386;42.138;24.746;2023-04-01T04:57:53;98669.84;;;11.83;91.67
4745;BME280;2386;42.138;24.746;2023-04-01T05:00:18;98669.06;;;11.93;91.95
4745;BME280;2386;42.138;24.746;2023-04-01T05:02:44;98661.47;;;11.95;91.83
4745;BME280;2386;42.138;24.746;2023-04-01T05:05:09;98659.06;;;12.03;91.38
4745;BME280;2386;42.138;24.746;2023-04-01T05:07:35;98658.88;;;12.20;90.30
4745;BME280;2386;42.138;24.746;2023-04-01T05:10:01;98668.75;;;12.36;88.37
4745;BME280;2386;42.138;24.746;2023-04-01T05:12:26;98675.59;;;12.49;87.99
4745;BME280;2386;42.138;24.746;2023-04-01T05:14:52;98655.78;;;12.59;85.84
4745;BME280;2386;42.138;24.746;2023-04-01T05:17:17;98667.19;;;12.61;85.51
4745;BME280;2386;42.138;24.746;2023-04-01T05:19:42;98661.22;;;12.59;87.87
4745;BME280;2386;42.138;24.746;2023-04-01T05:22:08;98659.03;;;12.66;85.88
4745;BME280;2386;42.138;24.746;2023-04-01T05:24:33;98655.19;;;12.52;87.36
4745;BME280;2386;42.138;24.746;2023-04-01T05:26:59;98649.78;;;12.62;87.18
4745;BME280;2386;42.138;24.746;2023-04-01T05:29:25;98654.66;;;12.65;87.09
4745;BME280;2386;42.138;24.746;2023-04-01T05:31:51;98653.88;;;12.59;87.52
4745;BME280;2386;42.138;24.746;2023-04-01T05:34:17;98649.50;;;12.53;87.80
4745;BME280;2386;42.138;24.746;2023-04-01T05:36:43;98654.13;;;12.63;87.26
4745;BME280;2386;42.138;24.746;2023-04-01T05:39:08;98644.06;;;12.58;87.61
4745;BME280;2386;42.138;24.746;2023-04-01T05:41:37;98627.19;;;12.71;86.29
4745;BME280;2386;42.138;24.746;2023-04-01T05:44:04;98621.19;;;12.64;87.49
4745;BME280;2386;42.138;24.746;2023-04-01T05:46:30;98621.47;;;12.63;87.36
4745;BME280;2386;42.138;24.746;2023-04-01T05:48:55;98614.41;;;12.72;87.16
4745;BME280;2386;42.138;24.746;2023-04-01T05:51:21;98600.81;;;12.67;87.53
4745;BME280;2386;42.138;24.746;2023-04-01T05:53:46;98590.47;;;12.79;86.80
4745;BME280;2386;42.138;24.746;2023-04-01T05:56:12;98597.84;;;12.89;86.17
4745;BME280;2386;42.138;24.746;2023-04-01T05:58:38;98592.69;;;12.97;85.32
4745;BME280;2386;42.138;24.746;2023-04-01T06:01:06;98578.78;;;12.94;85.93
4745;BME280;2386;42.138;24.746;2023-04-01T06:03:32;98580.97;;;12.87;86.61
4745;BME280;2386;42.138;24.746;2023-04-01T06:05:57;98564.38;;;12.88;86.94
4745;BME280;2386;42.138;24.746;2023-04-01T06:08:24;98578.53;;;13.00;86.66
4745;BME280;2386;42.138;24.746;2023-04-01T06:16:28;98560.59;;;13.20;84.31
4745;BME280;2386;42.138;24.746;2023-04-01T06:19:26;98545.59;;;13.22;85.12
4745;BME280;2386;42.138;24.746;2023-04-01T06:33:10;98567.88;;;13.49;84.56
4745;BME280;2386;42.138;24.746;2023-04-01T06:44:06;98558.84;;;13.64;84.12
4745;BME280;2386;42.138;24.746;2023-04-01T06:50:22;98557.19;;;13.68;82.96
4745;BME280;2386;42.138;24.746;2023-04-01T06:52:34;98545.72;;;13.76;83.35
4745;BME280;2386;42.138;24.746;2023-04-01T06:57:47;98563.69;;;13.82;82.50
4745;BME280;2386;42.138;24.746;2023-04-01T07:00:40;98562.53;;;14.04;82.12
4745;BME280;2386;42.138;24.746;2023-04-01T07:05:43;98570.63;;;14.19;81.02
4745;BME280;2386;42.138;24.746;2023-04-01T07:08:13;98565.13;;;14.24;82.15
4745;BME280;2386;42.138;24.746;2023-04-01T07:11:03;98547.66;;;14.30;80.48
4745;BME280;2386;42.138;24.746;2023-04-01T07:13:36;98535.63;;;14.31;80.71
4745;BME280;2386;42.138;24.746;2023-04-01T07:16:12;98541.34;;;14.35;80.51
4745;BME280;2386;42.138;24.746;2023-04-01T07:18:56;98535.59;;;14.46;80.31
4745;BME280;2386;42.138;24.746;2023-04-01T07:24:17;98524.63;;;14.52;79.01
4745;BME280;2386;42.138;24.746;2023-04-01T07:26:54;98527.25;;;14.67;79.31
4745;BME280;2386;42.138;24.746;2023-04-01T07:29:20;98512.59;;;14.58;79.32
4745;BME280;2386;42.138;24.746;2023-04-01T07:34:28;98507.63;;;14.65;80.27
4745;BME280;2386;42.138;24.746;2023-04-01T07:37:17;98525.97;;;14.88;79.33
4745;BME280;2386;42.138;24.746;2023-04-01T07:39:51;98520.44;;;14.98;78.38
4745;BME280;2386;42.138;24.746;2023-04-01T07:45:50;98511.63;;;15.06;78.68
4745;BME280;2386;42.138;24.746;2023-04-01T07:48:30;98507.16;;;15.16;77.47
4745;BME280;2386;42.138;24.746;2023-04-01T07:53:39;98512.59;;;15.21;78.22
4745;BME280;2386;42.138;24.746;2023-04-01T07:56:47;98520.56;;;15.41;77.97
4745;BME280;2386;42.138;24.746;2023-04-01T08:02:10;98518.56;;;15.52;77.16
4745;BME280;2386;42.138;24.746;2023-04-01T08:10:29;98501.84;;;15.00;77.38
4745;BME280;2386;42.138;24.746;2023-04-01T08:21:03;98472.13;;;14.94;79.27
4745;BME280;2386;42.138;24.746;2023-04-01T08:23:40;98470.25;;;14.89;80.01
4745;BME280;2386;42.138;24.746;2023-04-01T08:29:25;98458.91;;;14.82;81.01
4745;BME280;2386;42.138;24.746;2023-04-01T08:31:52;98466.34;;;15.00;80.74
4745;BME280;2386;42.138;24.746;2023-04-01T08:34:23;98454.66;;;14.95;79.55
4745;BME280;2386;42.138;24.746;2023-04-01T08:37:03;98451.97;;;14.90;80.34
4745;BME280;2386;42.138;24.746;2023-04-01T08:39:37;98446.16;;;14.96;80.34
4745;BME280;2386;42.138;24.746;2023-04-01T08:47:56;98428.59;;;15.31;79.21
4745;BME280;2386;42.138;24.746;2023-04-01T08:50:58;98425.34;;;15.53;77.32
4745;BME280;2386;42.138;24.746;2023-04-01T09:06:39;98391.09;;;15.98;73.97
4745;BME280;2386;42.138;24.746;2023-04-01T09:15:13;98380.16;;;15.80;75.37
4745;BME280;2386;42.138;24.746;2023-04-01T09:25:50;98351.00;;;15.51;77.31
4745;BME280;2386;42.138;24.746;2023-04-01T09:44:48;98324.22;;;15.72;76.02
4745;BME280;2386;42.138;24.746;2023-04-01T10:05:00;98302.13;;;16.66;69.97
4745;BME280;2386;42.138;24.746;2023-04-01T10:10:32;98291.13;;;16.52;70.26
4745;BME280;2386;42.138;24.746;2023-04-01T10:16:00;98262.06;;;16.70;69.81
4745;BME280;2386;42.138;24.746;2023-04-01T10:37:57;98238.00;;;16.94;68.95
4745;BME280;2386;42.138;24.746;2023-04-01T10:54:20;98161.97;;;17.58;67.49
4745;BME280;2386;42.138;24.746;2023-04-01T10:57:00;98158.19;;;17.46;66.53
4745;BME280;2386;42.138;24.746;2023-04-01T11:11:52;98155.03;;;17.83;65.63
4745;BME280;2386;42.138;24.746;2023-04-01T11:33:29;98110.38;;;18.31;63.11
4745;BME280;2386;42.138;24.746;2023-04-01T11:39:02;98096.56;;;18.62;60.79
4745;BME280;2386;42.138;24.746;2023-04-01T11:41:36;98078.31;;;18.66;60.25
4745;BME280;2386;42.138;24.746;2023-04-01T11:44:20;98079.94;;;18.76;60.61
4745;BME280;2386;42.138;24.746;2023-04-01T11:52:36;98059.09;;;19.18;58.48
4745;BME280;2386;42.138;24.746;2023-04-01T12:14:38;98052.47;;;19.10;59.63
4745;BME280;2386;42.138;24.746;2023-04-01T12:31:50;97990.22;;;19.99;58.72
4745;BME280;2386;42.138;24.746;2023-04-01T12:37:11;97984.44;;;20.63;54.81
4745;BME280;2386;42.138;24.746;2023-04-01T12:45:49;97970.72;;;21.78;50.95
4745;BME280;2386;42.138;24.746;2023-04-01T13:14:36;97931.13;;;23.66;45.41
4745;BME280;2386;42.138;24.746;2023-04-01T13:25:44;97932.97;;;22.58;44.98
4745;BME280;2386;42.138;24.746;2023-04-01T13:28:28;97959.22;;;21.76;46.86
4745;BME280;2386;42.138;24.746;2023-04-01T13:31:24;97984.66;;;20.58;49.85
4745;BME280;2386;42.138;24.746;2023-04-01T13:34:12;98046.00;;;19.79;52.07
4745;BME280;2386;42.138;24.746;2023-04-01T13:42:49;98101.47;;;17.86;60.91
4745;BME280;2386;42.138;24.746;2023-04-01T13:45:24;98112.13;;;17.56;64.43
4745;BME280;2386;42.138;24.746;2023-04-01T13:48:09;98109.88;;;17.36;65.31
4745;BME280;2386;42.138;24.746;2023-04-01T14:12:09;98222.50;;;14.81;100.00
4745;BME280;2386;42.138;24.746;2023-04-01T14:15:17;98232.47;;;14.67;100.00
4745;BME280;2386;42.138;24.746;2023-04-01T14:18:21;98244.44;;;14.71;100.00
4745;BME280;2386;42.138;24.746;2023-04-01T14:31:48;98201.69;;;16.20;93.44
4745;BME280;2386;42.138;24.746;2023-04-01T14:48:28;98153.31;;;16.84;80.52
4745;BME280;2386;42.138;24.746;2023-04-01T14:51:03;98159.63;;;16.71;79.94
4745;BME280;2386;42.138;24.746;2023-04-01T14:53:33;98143.81;;;16.68;81.71
4745;BME280;2386;42.138;24.746;2023-04-01T14:56:02;98160.13;;;16.59;81.45
4745;BME280;2386;42.138;24.746;2023-04-01T14:58:43;98145.50;;;16.64;83.46
4745;BME280;2386;42.138;24.746;2023-04-01T15:18:21;98160.13;;;16.04;88.34
4745;BME280;2386;42.138;24.746;2023-04-01T15:24:19;98161.47;;;16.21;87.70
4745;BME280;2386;42.138;24.746;2023-04-01T15:32:30;98147.97;;;16.38;88.54
4745;BME280;2386;42.138;24.746;2023-04-01T15:35:09;98133.25;;;16.48;87.30
4745;BME280;2386;42.138;24.746;2023-04-01T15:45:28;98136.84;;;16.21;86.88
4745;BME280;2386;42.138;24.746;2023-04-01T15:50:54;98119.22;;;16.13;86.24
4745;BME280;2386;42.138;24.746;2023-04-01T15:53:37;98127.41;;;16.13;87.63
4745;BME280;2386;42.138;24.746;2023-04-01T15:58:49;98124.28;;;16.20;86.45
4745;BME280;2386;42.138;24.746;2023-04-01T16:10:09;98131.28;;;16.12;86.33
4745;BME280;2386;42.138;24.746;2023-04-01T16:23:43;98185.47;;;15.64;91.81
4745;BME280;2386;42.138;24.746;2023-04-01T16:29:20;98188.41;;;15.67;91.38
4745;BME280;2386;42.138;24.746;2023-04-01T16:31:59;98205.66;;;15.82;89.60
4745;BME280;2386;42.138;24.746;2023-04-01T16:37:48;98203.75;;;15.82;86.66
4745;BME280;2386;42.138;24.746;2023-04-01T16:45:54;98229.47;;;15.81;83.96
4745;BME280;2386;42.138;24.746;2023-04-01T16:48:28;98239.75;;;15.70;89.15
4745;BME280;2386;42.138;24.746;2023-04-01T16:51:04;98237.63;;;15.30;98.38
4745;BME280;2386;42.138;24.746;2023-04-01T16:53:44;98221.50;;;14.91;100.00
4745;BME280;2386;42.138;24.746;2023-04-01T16:56:50;98225.47;;;14.61;100.00
4745;BME280;2386;42.138;24.746;2023-04-01T16:59:27;98221.66;;;14.33;100.00
4745;BME280;2386;42.138;24.746;2023-04-01T17:04:46;98190.66;;;14.24;100.00
4745;BME280;2386;42.138;24.746;2023-04-01T17:10:37;98154.41;;;13.70;100.00
4745;BME280;2386;42.138;24.746;2023-04-01T17:15:40;98143.56;;;13.65;100.00
4745;BME280;2386;42.138;24.746;2023-04-01T17:18:14;98157.16;;;13.70;100.00
4745;BME280;2386;42.138;24.746;2023-04-01T17:28:53;98177.91;;;13.95;100.00
4745;BME280;2386;42.138;24.746;2023-04-01T17:34:16;98194.72;;;14.02;100.00
4745;BME280;2386;42.138;24.746;2023-04-01T17:39:30;98207.78;;;14.05;100.00
4745;BME280;2386;42.138;24.746;2023-04-01T17:45:10;98227.31;;;14.12;100.00
4745;BME280;2386;42.138;24.746;2023-04-01T17:47:59;98248.31;;;14.12;100.00
4745;BME280;2386;42.138;24.746;2023-04-01T17:53:31;98370.03;;;14.03;100.00
4745;BME280;2386;42.138;24.746;2023-04-01T17:58:46;98369.28;;;13.92;100.00
4745;BME280;2386;42.138;24.746;2023-04-01T18:01:40;98382.03;;;14.02;96.92
4745;BME280;2386;42.138;24.746;2023-04-01T18:07:26;98403.91;;;13.92;87.57
4745;BME280;2386;42.138;24.746;2023-04-01T18:16:06;98407.97;;;13.99;83.42
4745;BME280;2386;42.138;24.746;2023-04-01T18:23:58;98415.19;;;14.14;84.11
4745;BME280;2386;42.138;24.746;2023-04-01T18:26:32;98410.34;;;14.11;84.14
4745;BME280;2386;42.138;24.746;2023-04-01T18:31:55;98400.00;;;14.08;83.12
4745;BME280;2386;42.138;24.746;2023-04-01T18:37:44;98414.31;;;14.24;84.90
4745;BME280;2386;42.138;24.746;2023-04-01T18:40:25;98423.03;;;14.26;84.32
4745;BME280;2386;42.138;24.746;2023-04-01T18:45:54;98437.25;;;14.18;81.78
4745;BME280;2386;42.138;24.746;2023-04-01T18:54:29;98440.56;;;14.14;84.89
4745;BME280;2386;42.138;24.746;2023-04-01T18:57:01;98443.81;;;14.17;86.79
4745;BME280;2386;42.138;24.746;2023-04-01T18:59:32;98440.13;;;14.02;84.82
4745;BME280;2386;42.138;24.746;2023-04-01T19:05:01;98461.19;;;13.87;82.58
4745;BME280;2386;42.138;24.746;2023-04-01T19:10:14;98452.16;;;13.96;83.71
4745;BME280;2386;42.138;24.746;2023-04-01T19:12:46;98467.66;;;14.01;83.65
4745;BME280;2386;42.138;24.746;2023-04-01T19:20:46;98452.44;;;13.90;84.74
4745;BME280;2386;42.138;24.746;2023-04-01T19:26:05;98468.31;;;13.77;86.26
4745;BME280;2386;42.138;24.746;2023-04-01T19:28:56;98471.00;;;13.88;86.00
4745;BME280;2386;42.138;24.746;2023-04-01T19:34:13;98479.78;;;13.74;85.01
4745;BME280;2386;42.138;24.746;2023-04-01T19:36:52;98471.88;;;13.73;83.77
4745;BME280;2386;42.138;24.746;2023-04-01T19:42:26;98469.13;;;13.83;84.37
4745;BME280;2386;42.138;24.746;2023-04-01T19:45:23;98463.97;;;13.76;83.60
4745;BME280;2386;42.138;24.746;2023-04-01T19:50:46;98480.56;;;13.80;83.13
4745;BME280;2386;42.138;24.746;2023-04-01T19:53:18;98476.31;;;13.59;83.69
4745;BME280;2386;42.138;24.746;2023-04-01T19:56:22;98486.41;;;13.48;83.44
4745;BME280;2386;42.138;24.746;2023-04-01T19:58:55;98487.03;;;13.30;83.51
4745;BME280;2386;42.138;24.746;2023-04-01T20:09:46;98495.75;;;13.06;86.70
4745;BME280;2386;42.138;24.746;2023-04-01T20:12:30;98508.31;;;12.82;87.77
4745;BME280;2386;42.138;24.746;2023-04-01T20:15:02;98512.94;;;12.81;89.59
4745;BME280;2386;42.138;24.746;2023-04-01T20:20:18;98537.97;;;12.94;87.97
4745;BME280;2386;42.138;24.746;2023-04-01T20:28:20;98544.78;;;12.86;88.19
4745;BME280;2386;42.138;24.746;2023-04-01T20:41:55;98570.59;;;12.48;89.01
4745;BME280;2386;42.138;24.746;2023-04-01T20:49:40;98575.13;;;12.17;88.55
4745;BME280;2386;42.138;24.746;2023-04-01T21:08:53;98575.06;;;12.02;86.03
4745;BME280;2386;42.138;24.746;2023-04-01T21:17:17;98596.56;;;12.08;86.78
4745;BME280;2386;42.138;24.746;2023-04-01T21:35:47;98611.63;;;12.31;84.59
4745;BME280;2386;42.138;24.746;2023-04-01T21:52:46;98640.50;;;12.63;82.83
4745;BME280;2386;42.138;24.746;2023-04-01T22:00:38;98622.84;;;12.60;84.32
4745;BME280;2386;42.138;24.746;2023-04-01T22:11:18;98640.03;;;12.86;84.37
4745;BME280;2386;42.138;24.746;2023-04-01T22:19:53;98648.66;;;12.47;82.42
4745;BME280;2386;42.138;24.746;2023-04-01T22:25:16;98644.03;;;12.43;83.85
4745;BME280;2386;42.138;24.746;2023-04-01T22:28:05;98648.66;;;12.47;83.75
4745;BME280;2386;42.138;24.746;2023-04-01T22:30:52;98632.63;;;12.51;83.97
4745;BME280;2386;42.138;24.746;2023-04-01T22:36:22;98628.00;;;12.57;84.33
4745;BME280;2386;42.138;24.746;2023-04-01T22:42:01;98633.47;;;12.57;80.63
4745;BME280;2386;42.138;24.746;2023-04-01T22:50:13;98634.53;;;12.56;79.33
4745;BME280;2386;42.138;24.746;2023-04-01T22:52:45;98636.72;;;12.54;79.60
4745;BME280;2386;42.138;24.746;2023-04-01T22:55:27;98634.53;;;12.56;78.94
4745;BME280;2386;42.138;24.746;2023-04-01T22:58:00;98633.13;;;12.38;77.16
4745;BME280;2386;42.138;24.746;2023-04-01T23:00:48;98644.84;;;12.48;76.31
4745;BME280;2386;42.138;24.746;2023-04-01T23:03:22;98660.63;;;12.52;76.63
4745;BME280;2386;42.138;24.746;2023-04-01T23:05:58;98665.28;;;12.56;77.07
4745;BME280;2386;42.138;24.746;2023-04-01T23:13:43;98651.88;;;12.39;77.01
4745;BME280;2386;42.138;24.746;2023-04-01T23:16:11;98652.94;;;12.28;78.06
4745;BME280;2386;42.138;24.746;2023-04-01T23:18:49;98652.91;;;12.23;77.69
4745;BME280;2386;42.138;24.746;2023-04-01T23:21:41;98654.47;;;12.09;79.25
4745;BME280;2386;42.138;24.746;2023-04-01T23:24:31;98648.50;;;12.12;79.53
4745;BME280;2386;42.138;24.746;2023-04-01T23:27:18;98653.94;;;12.12;79.13
4745;BME280;2386;42.138;24.746;2023-04-01T23:29:44;98657.44;;;12.02;78.28
4745;BME280;2386;42.138;24.746;2023-04-01T23:32:17;98647.31;;;11.93;79.00
4745;BME280;2386;42.138;24.746;2023-04-01T23:34:55;98660.66;;;11.99;77.77
4745;BME280;2386;42.138;24.746;2023-04-01T23:37:22;98657.09;;;11.94;78.38
4745;BME280;2386;42.138;24.746;2023-04-01T23:39:56;98658.19;;;11.88;79.26
4745;BME280;2386;42.138;24.746;2023-04-01T23:42:30;98662.97;;;11.75;79.82
4745;BME280;2386;42.138;24.746;2023-04-01T23:45:11;98656.97;;;11.73;79.59
4745;BME280;2386;42.138;24.746;2023-04-01T23:47:39;98660.19;;;11.65;79.50
4745;BME280;2386;42.138;24.746;2023-04-01T23:52:46;98649.84;;;11.62;80.31
4745;BME280;2386;42.138;24.746;2023-04-01T23:55:14;98653.06;;;11.59;80.74
4745;BME280;2386;42.138;24.746;2023-04-01T23:58:00;98655.78;;;11.59;79.33
